»·PEaware :: N9536M KVCV-KBFL

N9536M :: KVCV-KBFL

FLIGHT INFORMATION

Flight Status: Arrived
Operator: Privately registered:
United States
More flights under this callsign
Pilot: Jimmy J. (31710)
Aircraft: CIRRUS SR-22
(SR22)
More flights by this aircraft type
Origin: KVCV Socal Logistics
United States
Destination: KBFL Meadows
United States
More flights between these airports :: More routes between these airports
Route: +PMD
File this flight plan on PilotEdge
Remarks: VFR flight foillowing request / practice. Thank you!
Altitude:
(Current/Filed)
10,500ft
Speed:
(Current/Filed)
150kts
Departed: 09-Oct-20 07:59 AM
Arrived: 09-Oct-20 08:41 AM
Distance/Time
Traveled:
6735nm/0:42
Distance/Time
To Go:
Arrived

Flight Plot

Page will automatically refresh every two minutes.

Flight plan parsing failed; only flown route is shown


Map Options




Map Legend


Flown Route
Filed Route
Departure Airport
Arrival Airport
Navaid (VOR, NDB)
Fix

Horizontal Profiles

Position Reports

Time Latitude Longitude Heading Altitude Ground
Speed
09-Oct-20 07:27 34.586669 -117.376908 44 2871ft 0kts
09-Oct-20 07:28 34.586669 -117.376908 44 2871ft 0kts
09-Oct-20 07:29 34.586669 -117.376908 44 2871ft 0kts
09-Oct-20 07:30 34.586669 -117.376908 44 2871ft 0kts
09-Oct-20 07:31 34.586669 -117.376908 44 2871ft 0kts
09-Oct-20 07:32 34.586670 -117.376908 44 2871ft 0kts
09-Oct-20 07:33 34.586670 -117.376908 44 2871ft 0kts
09-Oct-20 07:34 34.586670 -117.376908 44 2871ft 0kts
09-Oct-20 07:35 34.586670 -117.376908 44 2871ft 0kts
09-Oct-20 07:36 34.586670 -117.376908 44 2871ft 0kts
09-Oct-20 07:37 34.586669 -117.376908 44 2871ft 0kts
09-Oct-20 07:38 34.591851 -117.373605 45 2862ft 33kts
09-Oct-20 07:39 34.595319 -117.367542 12 2854ft 33kts
09-Oct-20 07:40 34.598760 -117.366739 8 2849ft 0kts
09-Oct-20 07:41 34.598760 -117.366739 8 2849ft 0kts
09-Oct-20 07:42 34.598760 -117.366739 8 2849ft 0kts
09-Oct-20 07:47 34.594679 -117.367693 11 2855ft 28kts
09-Oct-20 07:48 34.598764 -117.366711 11 2849ft 0kts
09-Oct-20 07:49 34.598764 -117.366711 11 2849ft 0kts
09-Oct-20 07:50 34.598764 -117.366711 11 2849ft 0kts
09-Oct-20 07:51 34.598764 -117.366711 11 2849ft 0kts
09-Oct-20 07:52 34.598764 -117.366711 11 2849ft 0kts
09-Oct-20 07:53 34.598764 -117.366711 11 2849ft 0kts
09-Oct-20 07:54 34.598764 -117.366711 11 2849ft 0kts
09-Oct-20 07:55 34.598764 -117.366711 11 2849ft 0kts
09-Oct-20 07:56 34.598764 -117.366711 11 2849ft 0kts
09-Oct-20 07:57 34.600119 -117.366562 338 2848ft 25kts
09-Oct-20 07:58 34.585631 -117.385459 255 3441ft 102kts
09-Oct-20 07:59 34.599341 -117.412308 293 4715ft 90kts
09-Oct-20 08:00 34.604166 -117.443099 232 5590ft 119kts
09-Oct-20 08:01 34.600084 -117.488007 278 5829ft 165kts
09-Oct-20 08:02 34.599517 -117.539506 253 5542ft 139kts
09-Oct-20 08:03 34.608163 -117.578737 282 6077ft 145kts
09-Oct-20 08:04 34.608491 -117.631368 265 6003ft 168kts
09-Oct-20 08:05 34.611316 -117.689435 270 6004ft 173kts
09-Oct-20 08:06 34.614386 -117.747378 272 6282ft 159kts
09-Oct-20 08:07 34.617072 -117.796526 273 7382ft 135kts
09-Oct-20 08:08 34.618483 -117.824265 270 8061ft 129kts
09-Oct-20 08:09 34.621009 -117.867765 272 8870ft 141kts
09-Oct-20 08:10 34.623706 -117.918736 273 9261ft 156kts
09-Oct-20 08:11 34.626559 -117.971833 273 9660ft 158kts
09-Oct-20 08:12 34.629368 -118.025335 273 10061ft 158kts
09-Oct-20 08:13 34.640546 -118.075799 312 10452ft 160kts
09-Oct-20 08:14 34.672953 -118.115441 311 10500ft 165kts
09-Oct-20 08:15 34.704900 -118.154023 313 10504ft 160kts
09-Oct-20 08:16 34.736473 -118.192491 313 10504ft 160kts
09-Oct-20 08:17 34.767952 -118.230978 313 10504ft 160kts
09-Oct-20 08:18 34.799259 -118.269413 313 10504ft 160kts
09-Oct-20 08:19 34.830647 -118.307909 313 10504ft 160kts
09-Oct-20 08:20 34.862052 -118.346549 313 10504ft 160kts
09-Oct-20 08:21 34.893245 -118.385022 314 10504ft 160kts
09-Oct-20 08:22 34.924612 -118.423730 313 10505ft 160kts
09-Oct-20 08:24 34.956075 -118.462560 313 10504ft 160kts
09-Oct-20 08:25 34.987560 -118.501299 313 10499ft 161kts
09-Oct-20 08:26 35.019143 -118.540521 312 10502ft 161kts
09-Oct-20 08:27 35.050574 -118.579399 313 10494ft 158kts
09-Oct-20 08:28 35.080802 -118.617005 313 10500ft 150kts
09-Oct-20 08:29 35.109981 -118.653211 313 10489ft 149kts
09-Oct-20 08:30 35.140387 -118.690919 313 10006ft 162kts
09-Oct-20 08:31 35.171848 -118.730085 313 9209ft 161kts
09-Oct-20 08:32 35.203504 -118.769498 313 8032ft 161kts
09-Oct-20 08:33 35.233987 -118.807655 313 6734ft 153kts
09-Oct-20 08:34 35.263871 -118.844903 313 5428ft 153kts
09-Oct-20 08:35 35.293585 -118.882046 313 4129ft 152kts
09-Oct-20 08:36 35.321412 -118.916849 312 3493ft 128kts
09-Oct-20 08:37 35.354915 -118.958717 313 2511ft 189kts
09-Oct-20 08:38 35.388205 -119.000551 313 1607ft 134kts
09-Oct-20 08:39 35.409257 -119.027126 312 1023ft 109kts
09-Oct-20 08:39 35.425080 -119.045776 314 731ft 85kts
09-Oct-20 08:41 35.433813 -119.056222 312 494ft 0kts
09-Oct-20 08:41 0.000408 0.013975 0 3ft 0kts

Navigation Log

Ident Type
Flight plan parsing failed, navigation log unavailable